SAS4830 EDDH-ENGM
Flight info
| Callsign | SAS4830 |
|---|---|
| Flight time | 1h 19m |
| Altitude | 37000 |
| Route | SOKWO1G/33 SOKWO T814 EXNEL M105 AMRAK DCT NERDO/N0446F380 DCT PIPEX/N0445F370 M609 RIPAM |
| Aircraft | A320/M-SDE3FGHIRWY/LB1 |
Departure
| Time | 2026-05-07 21:07 |
|---|---|
| Airport | Hamburg Helmut Schmidt Airport (EDDH) |
Arrival
| Time | 2026-05-07 22:26 |
|---|---|
| Airport | Oslo-Gardermoen International Airport (ENGM) |
| Time | Latitude | Longitude | Altitude | Speed | Heading |
|---|---|---|---|---|---|
| 2026-05-07 20:47 | 53.62885 | 10.00231 | 48 ft | 0 kts | 124° |
| 2026-05-07 20:57 | 53.62886 | 10.00227 | 48 ft | 3 kts | 122° |
| 2026-05-07 20:57 | 53.62901 | 10.00189 | 50 ft | 4 kts | 122° |
| 2026-05-07 20:58 | 53.62915 | 10.00151 | 47 ft | 4 kts | 122° |
| 2026-05-07 20:58 | 53.62927 | 10.00120 | 48 ft | 3 kts | 122° |
| 2026-05-07 20:58 | 53.62938 | 10.00080 | 43 ft | 3 kts | 98° |
| 2026-05-07 20:58 | 53.62939 | 10.00064 | 43 ft | 0 kts | 81° |
| 2026-05-07 21:02 | 53.62924 | 10.00089 | 46 ft | 5 kts | 152° |
| 2026-05-07 21:02 | 53.62896 | 10.00082 | 48 ft | 3 kts | 206° |
| 2026-05-07 21:03 | 53.62888 | 10.00071 | 48 ft | 3 kts | 219° |
| 2026-05-07 21:03 | 53.62879 | 10.00055 | 46 ft | 0 kts | 226° |
| 2026-05-07 21:03 | 53.62876 | 10.00050 | 47 ft | 2 kts | 228° |
| 2026-05-07 21:03 | 53.62867 | 10.00030 | 48 ft | 2 kts | 232° |
| 2026-05-07 21:04 | 53.62852 | 9.99988 | 48 ft | 6 kts | 242° |
| 2026-05-07 21:04 | 53.62848 | 9.99977 | 48 ft | 0 kts | 243° |
| 2026-05-07 21:05 | 53.62845 | 9.99963 | 48 ft | 6 kts | 244° |
| 2026-05-07 21:05 | 53.62813 | 9.99842 | 45 ft | 15 kts | 251° |
| 2026-05-07 21:06 | 53.62884 | 9.99729 | 45 ft | 18 kts | 336° |
| 2026-05-07 21:06 | 53.63178 | 9.99478 | 47 ft | 83 kts | 333° |
| 2026-05-07 21:06 | 53.63873 | 9.98876 | 50 ft | 138 kts | 333° |
| 2026-05-07 21:06 | 53.64808 | 9.98027 | 393 ft | 152 kts | 332° |
| 2026-05-07 21:07 | 53.65747 | 9.97198 | 975 ft | 154 kts | 336° |
| 2026-05-07 21:07 | 53.66729 | 9.96371 | 1465 ft | 166 kts | 337° |
| 2026-05-07 21:07 | 53.67831 | 9.95450 | 1790 ft | 188 kts | 337° |
| 2026-05-07 21:07 | 53.69129 | 9.94715 | 2091 ft | 206 kts | 356° |
| 2026-05-07 21:08 | 53.70612 | 9.94680 | 2566 ft | 218 kts | 4° |
| 2026-05-07 21:08 | 53.72140 | 9.94704 | 3335 ft | 220 kts | 3° |
| 2026-05-07 21:08 | 53.73643 | 9.95106 | 4160 ft | 219 kts | 21° |
| 2026-05-07 21:08 | 53.75041 | 9.96313 | 4687 ft | 237 kts | 34° |
| 2026-05-07 21:09 | 53.76492 | 9.97907 | 5087 ft | 259 kts | 34° |
| 2026-05-07 21:09 | 53.78020 | 9.99597 | 5502 ft | 265 kts | 34° |
| 2026-05-07 21:09 | 53.79558 | 10.01294 | 6573 ft | 264 kts | 34° |
| 2026-05-07 21:09 | 53.81104 | 10.02994 | 7484 ft | 267 kts | 34° |
| 2026-05-07 21:10 | 53.82676 | 10.04719 | 8339 ft | 272 kts | 33° |
| 2026-05-07 21:10 | 53.84279 | 10.06480 | 9162 ft | 278 kts | 33° |
| 2026-05-07 21:10 | 53.85918 | 10.08280 | 9994 ft | 283 kts | 34° |
| 2026-05-07 21:10 | 53.87663 | 10.09975 | 10498 ft | 300 kts | 23° |
| 2026-05-07 21:11 | 53.89745 | 10.10975 | 10733 ft | 324 kts | 8° |
| 2026-05-07 21:11 | 53.92067 | 10.10955 | 10996 ft | 343 kts | 351° |
| 2026-05-07 21:11 | 53.96791 | 10.08967 | 12314 ft | 354 kts | 346° |
| 2026-05-07 21:12 | 53.99191 | 10.07945 | 13037 ft | 357 kts | 346° |
| 2026-05-07 21:12 | 54.01617 | 10.06922 | 13773 ft | 361 kts | 345° |
| 2026-05-07 21:12 | 54.04067 | 10.05891 | 14438 ft | 364 kts | 345° |
| 2026-05-07 21:12 | 54.06542 | 10.04849 | 15066 ft | 368 kts | 346° |
| 2026-05-07 21:13 | 54.09006 | 10.03612 | 15675 ft | 371 kts | 338° |
| 2026-05-07 21:13 | 54.11280 | 10.01651 | 16266 ft | 374 kts | 327° |
| 2026-05-07 21:13 | 54.13335 | 9.98918 | 16897 ft | 376 kts | 315° |
| 2026-05-07 21:13 | 54.15172 | 9.95731 | 17556 ft | 379 kts | 318° |
| 2026-05-07 21:14 | 54.17450 | 9.93478 | 18165 ft | 384 kts | 342° |
| 2026-05-07 21:14 | 54.20095 | 9.92716 | 18766 ft | 388 kts | 353° |
| 2026-05-07 21:14 | 54.22784 | 9.92156 | 19360 ft | 391 kts | 352° |
| 2026-05-07 21:14 | 54.25490 | 9.91477 | 19956 ft | 394 kts | 351° |
| 2026-05-07 21:15 | 54.28211 | 9.90710 | 20554 ft | 398 kts | 350° |
| 2026-05-07 21:15 | 54.30017 | 9.90173 | 20931 ft | 400 kts | 350° |
| 2026-05-07 21:15 | 54.32775 | 9.89341 | 21479 ft | 403 kts | 350° |
| 2026-05-07 21:15 | 54.35546 | 9.88513 | 21996 ft | 406 kts | 351° |
| 2026-05-07 21:16 | 54.38342 | 9.87695 | 22528 ft | 409 kts | 351° |
| 2026-05-07 21:16 | 54.41157 | 9.86883 | 23028 ft | 412 kts | 351° |
| 2026-05-07 21:16 | 54.43997 | 9.86075 | 23521 ft | 415 kts | 351° |
| 2026-05-07 21:16 | 54.46863 | 9.85267 | 23959 ft | 418 kts | 351° |
| 2026-05-07 21:17 | 54.49743 | 9.84456 | 24350 ft | 421 kts | 351° |
| 2026-05-07 21:17 | 54.52643 | 9.83639 | 24750 ft | 423 kts | 351° |
| 2026-05-07 21:17 | 54.55559 | 9.82811 | 25142 ft | 425 kts | 351° |
| 2026-05-07 21:17 | 54.58489 | 9.81973 | 25525 ft | 428 kts | 351° |
| 2026-05-07 21:18 | 54.61430 | 9.81128 | 25906 ft | 430 kts | 351° |
| 2026-05-07 21:18 | 54.64390 | 9.80274 | 26289 ft | 432 kts | 351° |
| 2026-05-07 21:18 | 54.67358 | 9.79415 | 26666 ft | 434 kts | 351° |
| 2026-05-07 21:18 | 54.70347 | 9.78551 | 27045 ft | 437 kts | 351° |
| 2026-05-07 21:19 | 54.73354 | 9.77684 | 27417 ft | 439 kts | 351° |
| 2026-05-07 21:19 | 54.76376 | 9.76814 | 27766 ft | 442 kts | 351° |
| 2026-05-07 21:19 | 54.79420 | 9.75936 | 28113 ft | 444 kts | 351° |
| 2026-05-07 21:19 | 54.82478 | 9.75059 | 28462 ft | 447 kts | 352° |
| 2026-05-07 21:20 | 54.85561 | 9.74328 | 28840 ft | 448 kts | 354° |
| 2026-05-07 21:20 | 54.88672 | 9.73780 | 29181 ft | 450 kts | 356° |
| 2026-05-07 21:20 | 54.91767 | 9.73353 | 29514 ft | 452 kts | 356° |
| 2026-05-07 21:20 | 54.94914 | 9.72964 | 29942 ft | 452 kts | 356° |
| 2026-05-07 21:21 | 54.98044 | 9.72563 | 30409 ft | 451 kts | 356° |
| 2026-05-07 21:21 | 55.01166 | 9.72126 | 30828 ft | 450 kts | 356° |
| 2026-05-07 21:21 | 55.04282 | 9.71653 | 31248 ft | 449 kts | 356° |
| 2026-05-07 21:21 | 55.07394 | 9.71156 | 31669 ft | 448 kts | 356° |
| 2026-05-07 21:22 | 55.10493 | 9.70646 | 32093 ft | 447 kts | 356° |
| 2026-05-07 21:22 | 55.13590 | 9.70136 | 32523 ft | 446 kts | 356° |
| 2026-05-07 21:22 | 55.16677 | 9.69633 | 32948 ft | 445 kts | 356° |
| 2026-05-07 21:22 | 55.19756 | 9.69136 | 33392 ft | 444 kts | 356° |
| 2026-05-07 21:23 | 55.22828 | 9.68642 | 33835 ft | 443 kts | 356° |
| 2026-05-07 21:23 | 55.25893 | 9.68148 | 34257 ft | 442 kts | 356° |
| 2026-05-07 21:23 | 55.28954 | 9.67656 | 34609 ft | 442 kts | 356° |
| 2026-05-07 21:23 | 55.32018 | 9.67161 | 34933 ft | 442 kts | 356° |
| 2026-05-07 21:24 | 55.35082 | 9.66668 | 35238 ft | 443 kts | 356° |
| 2026-05-07 21:24 | 55.38151 | 9.66174 | 35533 ft | 443 kts | 355° |
| 2026-05-07 21:24 | 55.41229 | 9.65675 | 35828 ft | 444 kts | 355° |
| 2026-05-07 21:24 | 55.44309 | 9.65173 | 36110 ft | 445 kts | 355° |
| 2026-05-07 21:25 | 55.47398 | 9.64667 | 36376 ft | 446 kts | 355° |
| 2026-05-07 21:25 | 55.50456 | 9.64164 | 36640 ft | 447 kts | 354° |
| 2026-05-07 21:25 | 55.53549 | 9.63657 | 36915 ft | 447 kts | 354° |
| 2026-05-07 21:25 | 55.56647 | 9.63150 | 37130 ft | 448 kts | 354° |
| 2026-05-07 21:26 | 55.62894 | 9.62125 | 37175 ft | 452 kts | 354° |
| 2026-05-07 21:26 | 55.69157 | 9.61105 | 37183 ft | 452 kts | 354° |
| 2026-05-07 21:27 | 55.75426 | 9.60075 | 37175 ft | 452 kts | 354° |
| 2026-05-07 21:27 | 55.81703 | 9.59049 | 37168 ft | 453 kts | 354° |
| 2026-05-07 21:28 | 55.87984 | 9.58009 | 37174 ft | 453 kts | 354° |
| 2026-05-07 21:28 | 55.94270 | 9.56948 | 37183 ft | 454 kts | 354° |
| 2026-05-07 21:29 | 56.00557 | 9.55901 | 37187 ft | 454 kts | 354° |
| 2026-05-07 21:29 | 56.06848 | 9.54848 | 37191 ft | 454 kts | 354° |
| 2026-05-07 21:30 | 56.13097 | 9.53798 | 37199 ft | 454 kts | 354° |
| 2026-05-07 21:30 | 56.19390 | 9.52746 | 37195 ft | 454 kts | 354° |
| 2026-05-07 21:31 | 56.25677 | 9.51693 | 37193 ft | 454 kts | 354° |
| 2026-05-07 21:31 | 56.31966 | 9.50633 | 37188 ft | 453 kts | 354° |
| 2026-05-07 21:32 | 56.38251 | 9.49551 | 37193 ft | 453 kts | 354° |
| 2026-05-07 21:32 | 56.44535 | 9.48465 | 37192 ft | 453 kts | 354° |
| 2026-05-07 21:33 | 56.50817 | 9.47390 | 37190 ft | 453 kts | 354° |
| 2026-05-07 21:33 | 56.57063 | 9.46327 | 37193 ft | 453 kts | 354° |
| 2026-05-07 21:34 | 56.63338 | 9.45248 | 37194 ft | 453 kts | 354° |
| 2026-05-07 21:34 | 56.69611 | 9.44155 | 37187 ft | 453 kts | 354° |
| 2026-05-07 21:35 | 56.75890 | 9.43048 | 37204 ft | 453 kts | 353° |
| 2026-05-07 21:35 | 56.82168 | 9.41969 | 37191 ft | 452 kts | 354° |
| 2026-05-07 21:36 | 56.88395 | 9.40903 | 37193 ft | 452 kts | 353° |
| 2026-05-07 21:36 | 56.94663 | 9.39794 | 37186 ft | 452 kts | 353° |
| 2026-05-07 21:37 | 57.00926 | 9.38685 | 37182 ft | 453 kts | 353° |
| 2026-05-07 21:37 | 57.07203 | 9.37579 | 37194 ft | 453 kts | 353° |
| 2026-05-07 21:38 | 57.13475 | 9.36478 | 37187 ft | 452 kts | 353° |
| 2026-05-07 21:38 | 57.19742 | 9.35362 | 37185 ft | 452 kts | 353° |
| 2026-05-07 21:39 | 57.26011 | 9.34233 | 37187 ft | 452 kts | 353° |
| 2026-05-07 21:39 | 57.32276 | 9.33113 | 37193 ft | 452 kts | 353° |
| 2026-05-07 21:40 | 57.38540 | 9.31987 | 37189 ft | 452 kts | 353° |
| 2026-05-07 21:40 | 57.44765 | 9.30880 | 37187 ft | 452 kts | 353° |
| 2026-05-07 21:41 | 57.51027 | 9.29755 | 37184 ft | 452 kts | 353° |
| 2026-05-07 21:41 | 57.57283 | 9.28611 | 37183 ft | 452 kts | 353° |
| 2026-05-07 21:42 | 57.63547 | 9.27468 | 37199 ft | 452 kts | 352° |
| 2026-05-07 21:42 | 57.69801 | 9.26329 | 37201 ft | 452 kts | 352° |
| 2026-05-07 21:43 | 57.76066 | 9.25179 | 37193 ft | 452 kts | 352° |
| 2026-05-07 21:43 | 57.82321 | 9.24029 | 37190 ft | 452 kts | 352° |
| 2026-05-07 21:44 | 57.88580 | 9.22870 | 37197 ft | 452 kts | 352° |
| 2026-05-07 21:44 | 57.94831 | 9.21695 | 37195 ft | 451 kts | 352° |
| 2026-05-07 21:45 | 58.01076 | 9.20512 | 37201 ft | 451 kts | 352° |
| 2026-05-07 21:45 | 58.07331 | 9.19317 | 37191 ft | 452 kts | 352° |
| 2026-05-07 21:46 | 58.13595 | 9.18128 | 37189 ft | 453 kts | 352° |
| 2026-05-07 21:46 | 58.19863 | 9.16928 | 37200 ft | 453 kts | 351° |
| 2026-05-07 21:47 | 58.26134 | 9.15708 | 37199 ft | 453 kts | 351° |
| 2026-05-07 21:47 | 58.32399 | 9.14500 | 37196 ft | 453 kts | 351° |
| 2026-05-07 21:48 | 58.38664 | 9.13290 | 37195 ft | 453 kts | 351° |
| 2026-05-07 21:48 | 58.44889 | 9.12077 | 37195 ft | 453 kts | 351° |
| 2026-05-07 21:49 | 58.51161 | 9.10847 | 37197 ft | 453 kts | 351° |
| 2026-05-07 21:49 | 58.57435 | 9.09610 | 37197 ft | 453 kts | 351° |
| 2026-05-07 21:50 | 58.63712 | 9.08384 | 37197 ft | 453 kts | 351° |
| 2026-05-07 21:50 | 58.69986 | 9.07159 | 37197 ft | 453 kts | 351° |
| 2026-05-07 21:51 | 58.76252 | 9.05931 | 37208 ft | 453 kts | 351° |
| 2026-05-07 21:51 | 58.82522 | 9.06118 | 37202 ft | 459 kts | 8° |
| 2026-05-07 21:52 | 58.88530 | 9.10440 | 37197 ft | 466 kts | 29° |
| 2026-05-07 21:52 | 58.93742 | 9.18024 | 37040 ft | 469 kts | 37° |
| 2026-05-07 21:53 | 58.96290 | 9.21969 | 36773 ft | 469 kts | 36° |
| 2026-05-07 21:53 | 58.98840 | 9.25917 | 36537 ft | 469 kts | 36° |
| 2026-05-07 21:53 | 59.01388 | 9.29869 | 36273 ft | 470 kts | 36° |
| 2026-05-07 21:53 | 59.03949 | 9.33841 | 35593 ft | 473 kts | 36° |
| 2026-05-07 21:54 | 59.06526 | 9.37837 | 34777 ft | 476 kts | 36° |
| 2026-05-07 21:54 | 59.09125 | 9.41874 | 33839 ft | 480 kts | 36° |
| 2026-05-07 21:54 | 59.11745 | 9.45955 | 32859 ft | 482 kts | 36° |
| 2026-05-07 21:54 | 59.14357 | 9.50043 | 31887 ft | 483 kts | 36° |
| 2026-05-07 21:55 | 59.16987 | 9.54167 | 30858 ft | 485 kts | 36° |
| 2026-05-07 21:55 | 59.19676 | 9.58154 | 29735 ft | 485 kts | 30° |
| 2026-05-07 21:55 | 59.22456 | 9.61709 | 28881 ft | 480 kts | 30° |
| 2026-05-07 21:55 | 59.25200 | 9.65225 | 28742 ft | 463 kts | 30° |
| 2026-05-07 21:56 | 59.27840 | 9.68628 | 28595 ft | 447 kts | 29° |
| 2026-05-07 21:56 | 59.30393 | 9.71922 | 28446 ft | 432 kts | 29° |
| 2026-05-07 21:56 | 59.32959 | 9.74754 | 28301 ft | 414 kts | 19° |
| 2026-05-07 21:56 | 59.35614 | 9.76596 | 28167 ft | 397 kts | 10° |
| 2026-05-07 21:57 | 59.38250 | 9.78043 | 27951 ft | 390 kts | 11° |
| 2026-05-07 21:57 | 59.40851 | 9.79480 | 27603 ft | 387 kts | 11° |
| 2026-05-07 21:57 | 59.43433 | 9.80915 | 27240 ft | 384 kts | 11° |
| 2026-05-07 21:57 | 59.45989 | 9.82338 | 26864 ft | 381 kts | 11° |
| 2026-05-07 21:58 | 59.48537 | 9.83759 | 26482 ft | 379 kts | 11° |
| 2026-05-07 21:58 | 59.51069 | 9.85172 | 26109 ft | 376 kts | 11° |
| 2026-05-07 21:58 | 59.53577 | 9.86579 | 25781 ft | 373 kts | 10° |
| 2026-05-07 21:58 | 59.56061 | 9.87977 | 25435 ft | 370 kts | 11° |
| 2026-05-07 21:59 | 59.58533 | 9.89366 | 25061 ft | 368 kts | 10° |
| 2026-05-07 21:59 | 59.60988 | 9.90742 | 24680 ft | 365 kts | 11° |
| 2026-05-07 21:59 | 59.63411 | 9.92105 | 24137 ft | 359 kts | 11° |
| 2026-05-07 21:59 | 59.65802 | 9.93456 | 23371 ft | 356 kts | 11° |
| 2026-05-07 22:00 | 59.68144 | 9.94776 | 22574 ft | 352 kts | 11° |
| 2026-05-07 22:00 | 59.70493 | 9.96091 | 21821 ft | 351 kts | 11° |
| 2026-05-07 22:00 | 59.72837 | 9.97393 | 21410 ft | 349 kts | 11° |
| 2026-05-07 22:00 | 59.75169 | 9.98689 | 20988 ft | 347 kts | 11° |
| 2026-05-07 22:01 | 59.77488 | 9.99984 | 20572 ft | 345 kts | 11° |
| 2026-05-07 22:01 | 59.79799 | 10.01279 | 20188 ft | 344 kts | 11° |
| 2026-05-07 22:01 | 59.82094 | 10.02569 | 19777 ft | 342 kts | 11° |
| 2026-05-07 22:01 | 59.83612 | 10.03425 | 19510 ft | 341 kts | 11° |
| 2026-05-07 22:02 | 59.85887 | 10.04709 | 19110 ft | 340 kts | 11° |
| 2026-05-07 22:02 | 59.88160 | 10.05995 | 18717 ft | 338 kts | 11° |
| 2026-05-07 22:02 | 59.90423 | 10.07277 | 18312 ft | 337 kts | 11° |
| 2026-05-07 22:02 | 59.92681 | 10.08553 | 17890 ft | 335 kts | 11° |
| 2026-05-07 22:03 | 59.94916 | 10.09821 | 17478 ft | 333 kts | 11° |
| 2026-05-07 22:03 | 59.97139 | 10.11092 | 17088 ft | 331 kts | 12° |
| 2026-05-07 22:03 | 59.99343 | 10.12360 | 16693 ft | 329 kts | 12° |
| 2026-05-07 22:03 | 60.01534 | 10.13626 | 16301 ft | 327 kts | 12° |
| 2026-05-07 22:04 | 60.03711 | 10.14888 | 15916 ft | 324 kts | 12° |
| 2026-05-07 22:04 | 60.05870 | 10.16136 | 15543 ft | 322 kts | 12° |
| 2026-05-07 22:04 | 60.08020 | 10.17378 | 15191 ft | 321 kts | 12° |
| 2026-05-07 22:04 | 60.10160 | 10.18615 | 14827 ft | 319 kts | 12° |
| 2026-05-07 22:05 | 60.12287 | 10.19844 | 14470 ft | 317 kts | 12° |
| 2026-05-07 22:05 | 60.14404 | 10.21066 | 14112 ft | 316 kts | 12° |
| 2026-05-07 22:05 | 60.16510 | 10.22280 | 13742 ft | 314 kts | 12° |
| 2026-05-07 22:05 | 60.18572 | 10.23474 | 13275 ft | 310 kts | 12° |
| 2026-05-07 22:06 | 60.20640 | 10.24676 | 12545 ft | 308 kts | 13° |
| 2026-05-07 22:06 | 60.22690 | 10.25869 | 11860 ft | 305 kts | 13° |
| 2026-05-07 22:06 | 60.24720 | 10.27051 | 11193 ft | 303 kts | 13° |
| 2026-05-07 22:06 | 60.26735 | 10.28222 | 10550 ft | 300 kts | 14° |
| 2026-05-07 22:07 | 60.28711 | 10.29376 | 10217 ft | 291 kts | 14° |
| 2026-05-07 22:07 | 60.30675 | 10.30526 | 9843 ft | 296 kts | 14° |
| 2026-05-07 22:07 | 60.32654 | 10.31709 | 9425 ft | 296 kts | 18° |
| 2026-05-07 22:07 | 60.34540 | 10.33346 | 9145 ft | 292 kts | 23° |
| 2026-05-07 22:08 | 60.36381 | 10.35016 | 9149 ft | 290 kts | 22° |
| 2026-05-07 22:08 | 60.38224 | 10.36680 | 9150 ft | 290 kts | 22° |
| 2026-05-07 22:08 | 60.40041 | 10.38321 | 9150 ft | 290 kts | 22° |
| 2026-05-07 22:08 | 60.41884 | 10.39990 | 9154 ft | 290 kts | 22° |
| 2026-05-07 22:09 | 60.43714 | 10.41652 | 9144 ft | 283 kts | 22° |
| 2026-05-07 22:09 | 60.45469 | 10.43251 | 9145 ft | 268 kts | 22° |
| 2026-05-07 22:09 | 60.47181 | 10.44462 | 9155 ft | 257 kts | 9° |
| 2026-05-07 22:09 | 60.48933 | 10.45070 | 9155 ft | 255 kts | 7° |
| 2026-05-07 22:10 | 60.50684 | 10.45669 | 9155 ft | 255 kts | 7° |
| 2026-05-07 22:10 | 60.52434 | 10.46274 | 9154 ft | 255 kts | 7° |
| 2026-05-07 22:10 | 60.54183 | 10.46878 | 9155 ft | 255 kts | 7° |
| 2026-05-07 22:10 | 60.55930 | 10.47490 | 9150 ft | 255 kts | 8° |
| 2026-05-07 22:11 | 60.57644 | 10.48450 | 9154 ft | 257 kts | 22° |
| 2026-05-07 22:11 | 60.59218 | 10.50187 | 9156 ft | 258 kts | 28° |
| 2026-05-07 22:11 | 60.60770 | 10.52007 | 9159 ft | 258 kts | 28° |
| 2026-05-07 22:11 | 60.62328 | 10.53823 | 9152 ft | 258 kts | 28° |
| 2026-05-07 22:12 | 60.63886 | 10.55632 | 9168 ft | 258 kts | 28° |
| 2026-05-07 22:12 | 60.65445 | 10.57438 | 9161 ft | 258 kts | 28° |
| 2026-05-07 22:12 | 60.66935 | 10.59468 | 9158 ft | 259 kts | 40° |
| 2026-05-07 22:12 | 60.68162 | 10.62159 | 9172 ft | 259 kts | 49° |
| 2026-05-07 22:13 | 60.69315 | 10.64930 | 9170 ft | 260 kts | 49° |
| 2026-05-07 22:13 | 60.70487 | 10.67744 | 9161 ft | 260 kts | 49° |
| 2026-05-07 22:13 | 60.71658 | 10.70549 | 9166 ft | 259 kts | 49° |
| 2026-05-07 22:13 | 60.72831 | 10.73358 | 9167 ft | 260 kts | 49° |
| 2026-05-07 22:14 | 60.73929 | 10.76279 | 9158 ft | 260 kts | 59° |
| 2026-05-07 22:14 | 60.74687 | 10.79622 | 9163 ft | 260 kts | 68° |
| 2026-05-07 22:14 | 60.75375 | 10.83038 | 9166 ft | 260 kts | 69° |
| 2026-05-07 22:14 | 60.75742 | 10.86618 | 9167 ft | 258 kts | 94° |
| 2026-05-07 22:15 | 60.75315 | 10.90129 | 9159 ft | 254 kts | 121° |
| 2026-05-07 22:15 | 60.74206 | 10.92888 | 8932 ft | 250 kts | 147° |
| 2026-05-07 22:15 | 60.72667 | 10.94361 | 8707 ft | 242 kts | 168° |
| 2026-05-07 22:15 | 60.71036 | 10.95220 | 8481 ft | 242 kts | 168° |
| 2026-05-07 22:16 | 60.69414 | 10.96089 | 8267 ft | 242 kts | 167° |
| 2026-05-07 22:16 | 60.67785 | 10.96971 | 8061 ft | 242 kts | 167° |
| 2026-05-07 22:16 | 60.66156 | 10.97853 | 7852 ft | 242 kts | 167° |
| 2026-05-07 22:16 | 60.64534 | 10.98737 | 7644 ft | 241 kts | 167° |
| 2026-05-07 22:17 | 60.62917 | 10.99619 | 7388 ft | 241 kts | 166° |
| 2026-05-07 22:17 | 60.61299 | 11.00501 | 7098 ft | 240 kts | 166° |
| 2026-05-07 22:17 | 60.59693 | 11.01374 | 6867 ft | 238 kts | 166° |
| 2026-05-07 22:17 | 60.58119 | 11.02226 | 6651 ft | 236 kts | 166° |
| 2026-05-07 22:18 | 60.56536 | 11.03084 | 6443 ft | 235 kts | 166° |
| 2026-05-07 22:18 | 60.53393 | 11.04782 | 6030 ft | 232 kts | 166° |
| 2026-05-07 22:18 | 60.51832 | 11.05622 | 5825 ft | 231 kts | 166° |
| 2026-05-07 22:19 | 60.50280 | 11.06459 | 5622 ft | 230 kts | 166° |
| 2026-05-07 22:19 | 60.48736 | 11.07290 | 5424 ft | 229 kts | 166° |
| 2026-05-07 22:19 | 60.47218 | 11.08237 | 5215 ft | 228 kts | 156° |
| 2026-05-07 22:19 | 60.45869 | 11.09907 | 5030 ft | 228 kts | 141° |
| 2026-05-07 22:20 | 60.44720 | 11.12122 | 4829 ft | 227 kts | 137° |
| 2026-05-07 22:20 | 60.43594 | 11.14343 | 4633 ft | 223 kts | 137° |
| 2026-05-07 22:20 | 60.42494 | 11.16501 | 4442 ft | 217 kts | 137° |
| 2026-05-07 22:20 | 60.41394 | 11.18504 | 4257 ft | 209 kts | 149° |
| 2026-05-07 22:21 | 60.40080 | 11.19452 | 4086 ft | 202 kts | 175° |
| 2026-05-07 22:21 | 60.38729 | 11.19102 | 3948 ft | 192 kts | 195° |
| 2026-05-07 22:21 | 60.37471 | 11.18369 | 3746 ft | 184 kts | 195° |
| 2026-05-07 22:21 | 60.36290 | 11.17689 | 3644 ft | 167 kts | 195° |
| 2026-05-07 22:22 | 60.35234 | 11.17076 | 3506 ft | 150 kts | 194° |
| 2026-05-07 22:22 | 60.34267 | 11.16514 | 3333 ft | 141 kts | 194° |
| 2026-05-07 22:22 | 60.33334 | 11.15971 | 3159 ft | 138 kts | 194° |
| 2026-05-07 22:22 | 60.32426 | 11.15443 | 2993 ft | 135 kts | 194° |
| 2026-05-07 22:23 | 60.31529 | 11.14921 | 2803 ft | 134 kts | 194° |
| 2026-05-07 22:23 | 60.30636 | 11.14402 | 2606 ft | 133 kts | 194° |
| 2026-05-07 22:23 | 60.29743 | 11.13884 | 2433 ft | 134 kts | 194° |
| 2026-05-07 22:23 | 60.28848 | 11.13383 | 2254 ft | 134 kts | 193° |
| 2026-05-07 22:24 | 60.27945 | 11.12911 | 2096 ft | 133 kts | 196° |
| 2026-05-07 22:24 | 60.27058 | 11.12347 | 1949 ft | 134 kts | 197° |
| 2026-05-07 22:24 | 60.26168 | 11.11803 | 1734 ft | 133 kts | 196° |
| 2026-05-07 22:24 | 60.25283 | 11.11308 | 1510 ft | 134 kts | 195° |
| 2026-05-07 22:25 | 60.24381 | 11.10791 | 1323 ft | 135 kts | 197° |
| 2026-05-07 22:25 | 60.23475 | 11.10243 | 1121 ft | 136 kts | 196° |
| 2026-05-07 22:25 | 60.22559 | 11.09731 | 931 ft | 137 kts | 197° |
| 2026-05-07 22:25 | 60.21648 | 11.09192 | 732 ft | 137 kts | 197° |
| 2026-05-07 22:26 | 60.20798 | 11.08707 | 675 ft | 112 kts | 197° |
| 2026-05-07 22:26 | 60.20224 | 11.08371 | 677 ft | 50 kts | 195° |
| 2026-05-07 22:26 | 60.19992 | 11.08302 | 676 ft | 20 kts | 173° |
| 2026-05-07 22:26 | 60.19903 | 11.08411 | 678 ft | 8 kts | 115° |
| 2026-05-07 22:27 | 60.19899 | 11.08427 | 678 ft | 0 kts | 112° |
| 2026-05-07 22:27 | 60.19896 | 11.08445 | 678 ft | 0 kts | 109° |
| 2026-05-07 22:27 | 60.19896 | 11.08447 | 675 ft | 1 kts | 109° |
| 2026-05-07 22:28 | 60.19890 | 11.08484 | 676 ft | 4 kts | 111° |
| 2026-05-07 22:28 | 60.19863 | 11.08531 | 678 ft | 0 kts | 160° |
| 2026-05-07 22:28 | 60.19860 | 11.08536 | 678 ft | 1 kts | 142° |
| 2026-05-07 22:28 | 60.19862 | 11.08586 | 678 ft | 7 kts | 81° |
| 2026-05-07 22:29 | 60.19842 | 11.08691 | 677 ft | 10 kts | 149° |
| 2026-05-07 22:29 | 60.19775 | 11.08752 | 678 ft | 12 kts | 115° |
| 2026-05-07 22:29 | 60.19750 | 11.08935 | 677 ft | 14 kts | 106° |
| 2026-05-07 22:29 | 60.19727 | 11.09087 | 678 ft | 11 kts | 105° |
| 2026-05-07 22:30 | 60.19703 | 11.09266 | 677 ft | 15 kts | 104° |
| 2026-05-07 22:30 | 60.19689 | 11.09375 | 679 ft | 2 kts | 104° |
| 2026-05-07 22:30 | 60.19686 | 11.09405 | 679 ft | 6 kts | 104° |
| 2026-05-07 22:30 | 60.19674 | 11.09501 | 679 ft | 3 kts | 104° |
| 2026-05-07 22:31 | 60.19657 | 11.09570 | 678 ft | 9 kts | 135° |
| 2026-05-07 22:31 | 60.19627 | 11.09583 | 679 ft | 2 kts | 192° |
| 2026-05-07 22:31 | 60.19615 | 11.09569 | 679 ft | 3 kts | 217° |
| 2026-05-07 22:31 | 60.19595 | 11.09523 | 679 ft | 3 kts | 225° |
| 2026-05-07 22:32 | 60.19581 | 11.09514 | 679 ft | 4 kts | 199° |
| 2026-05-07 22:32 | 60.19566 | 11.09505 | 679 ft | 0 kts | 196° |
| 2026-05-07 22:32 | 60.19565 | 11.09505 | 679 ft | 0 kts | 196° |